createdAt,value
2018-08-06T00:00:28.160Z,15.00
2018-08-06T00:02:57.239Z,14.90
2018-08-06T00:05:26.324Z,14.80
2018-08-06T00:07:55.367Z,14.70
2018-08-06T00:10:25.563Z,14.70
2018-08-06T00:12:54.617Z,14.70
2018-08-06T00:15:23.751Z,14.70
2018-08-06T00:17:52.808Z,14.60
2018-08-06T00:22:50.756Z,14.50
2018-08-06T00:25:19.827Z,14.50
2018-08-06T00:27:48.870Z,14.50
2018-08-06T00:30:19.163Z,14.50
2018-08-06T00:32:48.952Z,14.50
2018-08-06T00:35:18.267Z,14.40
2018-08-06T00:37:47.305Z,14.40
2018-08-06T00:40:19.867Z,14.40
2018-08-06T00:42:49.337Z,14.30
2018-08-06T00:45:20.058Z,14.30
2018-08-06T00:50:18.221Z,14.30
2018-08-06T00:55:17.512Z,14.30
2018-08-06T00:57:46.557Z,14.30
2018-08-06T01:00:17.752Z,14.40
2018-08-06T01:02:46.797Z,14.60
2018-08-06T01:05:16.319Z,14.70
2018-08-06T01:07:45.744Z,14.80
2018-08-06T01:10:17.171Z,14.90
2018-08-06T01:12:46.264Z,14.90
2018-08-06T01:15:17.431Z,14.90
2018-08-06T01:17:46.489Z,14.90
2018-08-06T01:20:15.819Z,14.70
2018-08-06T01:22:45.547Z,14.60
2018-08-06T01:25:14.927Z,14.60
2018-08-06T01:27:44.059Z,14.40
2018-08-06T01:30:14.247Z,14.30
2018-08-06T01:32:43.471Z,14.10
2018-08-06T01:35:12.748Z,14.10
2018-08-06T01:37:41.809Z,14.10
2018-08-06T01:42:41.699Z,13.90
2018-08-06T01:45:12.503Z,13.80
2018-08-06T01:47:41.571Z,13.90
2018-08-06T01:52:39.924Z,14.00
2018-08-06T01:55:08.988Z,14.00
2018-08-06T01:57:38.103Z,14.00
2018-08-06T02:00:10.064Z,14.00
2018-08-06T02:02:39.380Z,14.10
2018-08-06T02:05:08.936Z,14.10
2018-08-06T02:07:38.502Z,14.20
2018-08-06T02:10:09.719Z,14.20
2018-08-06T02:12:39.044Z,14.10
2018-08-06T02:15:09.568Z,14.10
2018-08-06T02:17:38.938Z,14.10
2018-08-06T02:20:09.819Z,14.00
2018-08-06T02:22:38.900Z,13.90
2018-08-06T02:25:09.126Z,13.80
2018-08-06T02:27:38.207Z,13.70
2018-08-06T02:30:10.180Z,13.60
2018-08-06T02:32:39.504Z,13.60
2018-08-06T02:35:10.224Z,13.50
2018-08-06T02:37:39.543Z,13.40
2018-08-06T02:40:11.285Z,13.30
2018-08-06T02:42:40.369Z,13.20
2018-08-06T02:45:10.188Z,13.10
2018-08-06T02:47:39.915Z,13.00
2018-08-06T02:50:10.119Z,13.00
2018-08-06T02:52:39.659Z,12.90
2018-08-06T02:55:10.387Z,12.90
2018-08-06T02:57:39.492Z,12.80
2018-08-06T03:00:10.842Z,12.80
2018-08-06T03:02:40.116Z,12.80
2018-08-06T03:05:11.680Z,12.80
2018-08-06T03:07:41.480Z,12.70
2018-08-06T03:10:10.673Z,12.80
2018-08-06T03:12:40.080Z,12.70
2018-08-06T03:15:10.633Z,12.70
2018-08-06T03:17:40.215Z,12.70
2018-08-06T03:20:10.872Z,12.70
2018-08-06T03:22:40.373Z,12.70
2018-08-06T03:25:11.544Z,12.60
2018-08-06T03:27:40.798Z,12.80
2018-08-06T03:30:12.160Z,12.80
2018-08-06T03:32:41.267Z,12.70
2018-08-06T03:35:11.491Z,12.60
2018-08-06T03:37:40.527Z,12.50
2018-08-06T03:42:38.851Z,12.50
2018-08-06T03:45:09.515Z,12.40
2018-08-06T03:47:38.935Z,12.40
2018-08-06T03:50:09.148Z,12.40
2018-08-06T03:52:38.276Z,12.40
2018-08-06T03:57:37.240Z,12.30
2018-08-06T04:00:08.192Z,12.20
2018-08-06T04:02:37.470Z,12.20
2018-08-06T04:05:08.232Z,12.20
2018-08-06T04:07:37.311Z,12.20
2018-08-06T04:10:07.223Z,12.20
2018-08-06T04:12:36.284Z,12.30
2018-08-06T04:17:34.427Z,12.30
2018-08-06T04:20:03.526Z,12.30
2018-08-06T04:22:32.596Z,12.40
2018-08-06T04:25:01.682Z,12.40
2018-08-06T04:27:30.735Z,12.40
2018-08-06T04:29:59.823Z,12.40
2018-08-06T04:32:28.922Z,12.50
2018-08-06T04:34:58.000Z,12.50
2018-08-06T04:37:27.055Z,12.60
2018-08-06T04:39:56.408Z,12.60
2018-08-06T04:42:25.492Z,12.60
2018-08-06T04:44:54.583Z,12.70
2018-08-06T04:47:23.658Z,12.70
2018-08-06T04:49:52.728Z,12.80
2018-08-06T04:54:50.615Z,13.00
2018-08-06T04:57:19.696Z,13.20
2018-08-06T04:59:48.760Z,13.30
2018-08-06T05:02:17.845Z,13.40
2018-08-06T05:04:46.916Z,13.70
2018-08-06T05:07:16.003Z,13.80
2018-08-06T05:12:15.183Z,14.20
2018-08-06T05:14:44.249Z,14.40
2018-08-06T05:17:13.343Z,14.60
2018-08-06T05:19:42.495Z,14.70
2018-08-06T05:24:40.270Z,14.90
2018-08-06T05:29:38.034Z,15.10
2018-08-06T05:32:07.115Z,15.20
2018-08-06T05:34:36.184Z,15.40
2018-08-06T05:37:05.488Z,15.60
2018-08-06T05:39:34.552Z,15.70
2018-08-06T05:44:32.439Z,16.00
2018-08-06T05:49:30.248Z,16.30
2018-08-06T05:51:59.359Z,16.30
2018-08-06T05:54:28.424Z,16.50
2018-08-06T05:56:57.502Z,16.60
2018-08-06T06:01:55.319Z,16.80
2018-08-06T06:04:24.387Z,17.00
2018-08-06T06:09:22.157Z,17.40
2018-08-06T06:16:48.747Z,17.80
2018-08-06T06:21:46.767Z,18.10
2018-08-06T06:24:15.825Z,18.30
2018-08-06T06:31:42.285Z,18.70
2018-08-06T06:34:11.369Z,18.90
2018-08-06T06:36:40.443Z,19.00
2018-08-06T06:39:10.972Z,19.20
2018-08-06T06:41:40.355Z,19.30
2018-08-06T06:44:09.879Z,19.40
2018-08-06T06:46:39.673Z,19.50
2018-08-06T06:49:09.365Z,19.60
2018-08-06T06:51:38.390Z,19.70
2018-08-06T06:54:07.480Z,19.80
2018-08-06T06:56:36.524Z,20.00
2018-08-06T06:59:05.602Z,20.10
2018-08-06T07:01:34.648Z,20.10
2018-08-06T07:04:03.716Z,20.20
2018-08-06T07:06:32.756Z,20.40
2018-08-06T07:09:01.824Z,20.50
2018-08-06T07:13:59.601Z,20.90
2018-08-06T07:16:28.628Z,21.00
2018-08-06T07:18:57.687Z,21.10
2018-08-06T07:23:55.424Z,21.20
2018-08-06T07:26:24.459Z,21.30
2018-08-06T07:28:53.543Z,21.40
2018-08-06T07:31:22.611Z,21.50
2018-08-06T07:33:51.710Z,21.60
2018-08-06T07:36:20.745Z,21.80
2018-08-06T07:38:49.850Z,21.90
2018-08-06T07:43:47.711Z,22.00
2018-08-06T07:46:16.760Z,22.10
2018-08-06T07:48:45.840Z,22.10
2018-08-06T07:51:14.903Z,22.20
2018-08-06T07:53:43.968Z,22.30
2018-08-06T07:56:13.023Z,22.30
2018-08-06T07:58:42.068Z,22.40
2018-08-06T08:01:11.149Z,22.50
2018-08-06T08:03:40.200Z,22.50
2018-08-06T08:08:37.944Z,22.70
2018-08-06T08:11:07.006Z,22.80
2018-08-06T08:13:36.056Z,22.90
2018-08-06T08:16:05.818Z,23.00
2018-08-06T08:18:34.871Z,23.20
2018-08-06T08:21:03.931Z,23.40
2018-08-06T08:23:33.003Z,23.50
2018-08-06T08:26:02.076Z,23.70
2018-08-06T08:28:31.179Z,23.80
2018-08-06T08:31:00.260Z,23.90
2018-08-06T08:38:27.318Z,24.20
2018-08-06T08:40:56.383Z,24.30
2018-08-06T08:43:25.452Z,24.30
2018-08-06T08:45:54.520Z,24.20
2018-08-06T08:48:23.576Z,24.30
2018-08-06T08:50:52.728Z,24.40
2018-08-06T08:58:19.188Z,24.90
2018-08-06T09:00:48.255Z,25.00
2018-08-06T09:03:17.316Z,25.10
2018-08-06T09:05:46.385Z,25.30
2018-08-06T09:08:15.436Z,25.40
2018-08-06T09:10:44.508Z,25.60
2018-08-06T09:13:13.560Z,25.60
2018-08-06T09:15:42.623Z,25.70
2018-08-06T09:18:11.680Z,25.70
2018-08-06T09:20:40.743Z,25.70
2018-08-06T09:23:09.804Z,25.70
2018-08-06T09:25:38.871Z,25.90
2018-08-06T09:28:07.926Z,25.80
2018-08-06T09:30:37.023Z,25.70
2018-08-06T09:33:06.083Z,25.80
2018-08-06T09:35:35.119Z,26.00
2018-08-06T09:38:04.180Z,26.20
2018-08-06T09:40:33.317Z,26.30
2018-08-06T09:43:02.310Z,26.20
2018-08-06T09:45:31.351Z,26.20
2018-08-06T09:48:00.416Z,26.40
2018-08-06T09:52:58.239Z,26.80
2018-08-06T09:55:28.459Z,27.10
2018-08-06T09:57:57.539Z,27.10
2018-08-06T10:00:31.947Z,27.00
2018-08-06T10:03:02.012Z,27.20
2018-08-06T10:05:31.165Z,27.30
2018-08-06T10:08:00.230Z,27.40
2018-08-06T10:10:29.295Z,27.40
2018-08-06T10:12:58.367Z,27.40
2018-08-06T10:15:27.435Z,27.40
2018-08-06T10:17:56.795Z,27.40
2018-08-06T10:20:26.488Z,27.40
2018-08-06T10:22:55.564Z,27.40
2018-08-06T10:25:24.623Z,27.40
2018-08-06T10:27:53.708Z,27.60
2018-08-06T10:35:21.175Z,28.10
2018-08-06T10:37:50.255Z,28.30
2018-08-06T10:40:20.675Z,28.40
2018-08-06T10:42:49.744Z,28.40
2018-08-06T10:45:20.016Z,28.60
2018-08-06T10:47:49.535Z,28.60
2018-08-06T10:50:18.635Z,28.60
2018-08-06T10:52:47.751Z,28.80
2018-08-06T10:57:45.998Z,29.10
2018-08-06T11:00:18.179Z,29.10
2018-08-06T11:02:47.681Z,29.20
2018-08-06T11:07:46.060Z,29.00
2018-08-06T11:10:16.431Z,28.90
2018-08-06T11:12:45.503Z,29.10
2018-08-06T11:15:23.302Z,29.30
2018-08-06T11:17:52.394Z,29.30
2018-08-06T11:20:22.040Z,29.60
2018-08-06T11:22:51.140Z,29.80
2018-08-06T11:25:21.537Z,30.00
2018-08-06T11:27:50.627Z,30.10
2018-08-06T11:30:20.980Z,30.20
2018-08-06T11:32:50.664Z,30.40
2018-08-06T11:35:19.797Z,30.60
2018-08-06T11:37:48.879Z,30.70
2018-08-06T11:40:18.390Z,30.70
2018-08-06T11:42:47.979Z,30.60
2018-08-06T11:45:19.139Z,30.70
2018-08-06T11:47:48.213Z,30.90
2018-08-06T11:50:17.408Z,30.70
2018-08-06T11:52:46.588Z,30.70
2018-08-06T11:57:44.349Z,30.80
2018-08-06T12:00:16.587Z,31.00
2018-08-06T12:02:45.688Z,31.10
2018-08-06T12:05:14.767Z,31.20
2018-08-06T12:07:43.808Z,31.20
2018-08-06T12:10:14.717Z,31.30
2018-08-06T12:12:44.724Z,31.00
2018-08-06T12:15:13.886Z,31.00
2018-08-06T12:17:43.218Z,31.00
2018-08-06T12:20:13.988Z,31.00
2018-08-06T12:22:44.274Z,30.80
2018-08-06T12:25:14.211Z,31.00
2018-08-06T12:27:43.914Z,31.20
2018-08-06T12:30:16.955Z,31.20
2018-08-06T12:35:15.926Z,31.40
2018-08-06T12:37:45.323Z,31.50
2018-08-06T12:40:15.651Z,31.50
2018-08-06T12:42:44.721Z,31.60
2018-08-06T12:45:14.639Z,31.50
2018-08-06T12:47:44.163Z,31.70
2018-08-06T12:50:14.272Z,32.00
2018-08-06T12:52:43.800Z,32.70
2018-08-06T12:55:14.103Z,34.00
2018-08-06T12:57:43.834Z,35.10
2018-08-06T13:00:18.203Z,36.20
2018-08-06T13:05:17.153Z,37.40
2018-08-06T13:07:46.239Z,37.80
2018-08-06T13:10:15.383Z,38.40
2018-08-06T13:12:44.499Z,38.60
2018-08-06T13:15:14.557Z,38.90
2018-08-06T13:17:43.616Z,39.20
2018-08-06T13:22:41.356Z,40.00
2018-08-06T13:25:11.932Z,40.20
2018-08-06T13:32:42.560Z,40.70
2018-08-06T13:35:12.151Z,40.60
2018-08-06T13:37:41.227Z,41.20
2018-08-06T13:40:10.803Z,41.60
2018-08-06T13:42:39.845Z,41.80
2018-08-06T13:45:10.943Z,42.10
2018-08-06T13:47:40.016Z,42.20
2018-08-06T13:50:09.688Z,42.30
2018-08-06T13:52:38.769Z,42.80
2018-08-06T13:55:09.399Z,43.00
2018-08-06T13:57:38.518Z,42.80
2018-08-06T14:00:14.700Z,43.00
2018-08-06T14:02:43.887Z,43.30
2018-08-06T14:05:14.333Z,43.20
2018-08-06T14:07:44.523Z,43.30
2018-08-06T14:10:13.600Z,44.00
2018-08-06T14:17:41.327Z,45.00
2018-08-06T14:20:12.824Z,45.20
2018-08-06T14:22:41.879Z,44.90
2018-08-06T14:25:11.403Z,44.90
2018-08-06T14:27:40.450Z,45.60
2018-08-06T14:30:12.569Z,45.70
2018-08-06T14:32:41.972Z,46.10
2018-08-06T14:35:11.191Z,46.30
2018-08-06T14:37:40.256Z,46.90
2018-08-06T14:40:12.457Z,47.00
2018-08-06T14:42:41.609Z,46.90
2018-08-06T14:45:11.116Z,46.80
2018-08-06T14:47:40.205Z,47.10
2018-08-06T14:50:10.947Z,47.50
2018-08-06T14:52:40.060Z,47.50
2018-08-06T14:55:09.128Z,47.20
2018-08-06T14:57:39.392Z,47.70
2018-08-06T15:00:16.196Z,47.90
2018-08-06T15:02:45.365Z,48.60
2018-08-06T15:05:14.423Z,49.30
2018-08-06T15:07:43.504Z,49.40
2018-08-06T15:12:42.343Z,50.10
2018-08-06T15:15:13.528Z,50.30
2018-08-06T15:17:43.220Z,49.80
2018-08-06T15:20:13.853Z,50.00
2018-08-06T15:22:42.947Z,50.10
2018-08-06T15:25:16.516Z,49.90
2018-08-06T15:27:45.648Z,50.50
2018-08-06T15:30:14.701Z,50.80
2018-08-06T15:32:43.792Z,51.00
2018-08-06T15:35:13.423Z,51.00
2018-08-06T15:37:43.370Z,50.70
2018-08-06T15:40:15.923Z,50.60
2018-08-06T15:42:45.072Z,51.20
2018-08-06T15:45:14.727Z,50.80
2018-08-06T15:47:44.668Z,51.60
2018-08-06T15:50:18.880Z,51.60
2018-08-06T15:52:48.036Z,51.60
2018-08-06T15:57:45.815Z,51.90
2018-08-06T16:02:45.567Z,51.80
2018-08-06T16:05:14.906Z,51.90
2018-08-06T16:07:44.134Z,52.10
2018-08-06T16:10:13.911Z,52.50
2018-08-06T16:12:43.289Z,52.50
2018-08-06T16:15:13.437Z,52.40
2018-08-06T16:17:43.119Z,52.70
2018-08-06T16:20:13.675Z,52.80
2018-08-06T16:22:42.784Z,52.40
2018-08-06T16:25:12.471Z,52.80
2018-08-06T16:27:41.544Z,52.40
2018-08-06T16:30:15.595Z,52.90
2018-08-06T16:32:45.593Z,52.90
2018-08-06T16:35:15.259Z,52.50
2018-08-06T16:37:44.344Z,52.30
2018-08-06T16:40:13.919Z,52.20
2018-08-06T16:42:43.208Z,52.30
2018-08-06T16:45:12.288Z,52.50
2018-08-06T16:47:41.352Z,52.40
2018-08-06T16:50:14.002Z,52.40
2018-08-06T16:52:43.314Z,52.00
2018-08-06T16:55:12.370Z,52.20
2018-08-06T16:57:41.696Z,51.50
2018-08-06T17:02:40.389Z,51.70
2018-08-06T17:05:11.110Z,51.60
2018-08-06T17:07:40.435Z,51.40
2018-08-06T17:10:11.971Z,51.60
2018-08-06T17:12:41.908Z,51.90
2018-08-06T17:15:12.105Z,51.80
2018-08-06T17:17:41.316Z,51.90
2018-08-06T17:20:13.311Z,51.60
2018-08-06T17:22:42.905Z,51.20
2018-08-06T17:25:12.688Z,51.00
2018-08-06T17:27:42.123Z,50.70
2018-08-06T17:30:11.852Z,50.20
2018-08-06T17:32:40.929Z,50.00
2018-08-06T17:35:11.367Z,49.70
2018-08-06T17:37:40.535Z,49.70
2018-08-06T17:40:12.868Z,49.60
2018-08-06T17:45:15.096Z,48.80
2018-08-06T17:47:44.171Z,48.80
2018-08-06T17:50:16.034Z,48.20
2018-08-06T17:52:46.429Z,47.90
2018-08-06T17:55:16.807Z,47.20
2018-08-06T17:57:45.933Z,46.90
2018-08-06T18:00:15.399Z,46.70
2018-08-06T18:02:44.488Z,45.80
2018-08-06T18:05:14.627Z,45.40
2018-08-06T18:07:44.153Z,44.50
2018-08-06T18:10:14.455Z,44.30
2018-08-06T18:12:44.188Z,43.60
2018-08-06T18:15:13.238Z,43.00
2018-08-06T18:17:42.315Z,42.30
2018-08-06T18:20:13.508Z,41.50
2018-08-06T18:22:42.671Z,40.30
2018-08-06T18:27:41.616Z,38.40
2018-08-06T18:30:14.200Z,37.40
2018-08-06T18:32:43.387Z,36.40
2018-08-06T18:35:14.095Z,35.60
2018-08-06T18:40:12.547Z,33.90
2018-08-06T18:42:41.591Z,33.20
2018-08-06T18:45:13.471Z,32.30
2018-08-06T18:47:43.505Z,31.70
2018-08-06T18:50:13.644Z,30.90
2018-08-06T18:52:43.738Z,30.40
2018-08-06T18:55:13.687Z,30.10
2018-08-06T18:57:43.132Z,29.60
2018-08-06T19:00:16.119Z,29.00
2018-08-06T19:07:42.585Z,28.20
2018-08-06T19:12:46.055Z,27.70
2018-08-06T19:15:15.396Z,27.40
2018-08-06T19:17:49.992Z,27.20
2018-08-06T19:20:19.084Z,26.90
2018-08-06T19:22:48.152Z,26.70
2018-08-06T19:25:22.612Z,26.40
2018-08-06T19:27:51.675Z,26.10
2018-08-06T19:30:20.900Z,25.90
2018-08-06T19:32:49.966Z,25.70
2018-08-06T19:35:19.052Z,25.50
2018-08-06T19:37:49.703Z,25.40
2018-08-06T19:40:18.788Z,25.10
2018-08-06T19:42:53.183Z,25.10
2018-08-06T19:45:22.314Z,24.90
2018-08-06T19:47:51.560Z,24.70
2018-08-06T19:50:26.067Z,24.60
2018-08-06T19:52:55.108Z,24.40
2018-08-06T19:55:29.586Z,24.20
2018-08-06T19:57:58.656Z,24.00
2018-08-06T20:00:27.739Z,23.90
2018-08-06T20:02:56.806Z,23.70
2018-08-06T20:05:25.930Z,23.60
2018-08-06T20:07:55.000Z,23.40
2018-08-06T20:10:24.097Z,23.30
2018-08-06T20:12:53.192Z,23.20
2018-08-06T20:15:22.254Z,23.00
2018-08-06T20:17:51.370Z,22.80
2018-08-06T20:20:20.423Z,22.80
2018-08-06T20:22:49.507Z,22.60
2018-08-06T20:25:20.672Z,22.60
2018-08-06T20:27:50.399Z,22.50
2018-08-06T20:30:21.108Z,22.40
2018-08-06T20:32:50.298Z,22.30
2018-08-06T20:35:19.838Z,22.20
2018-08-06T20:37:48.931Z,22.10
2018-08-06T20:40:18.084Z,21.90
2018-08-06T20:45:18.756Z,21.80
2018-08-06T20:47:48.199Z,21.70
2018-08-06T20:50:18.698Z,21.70
2018-08-06T20:52:48.840Z,21.60
2018-08-06T20:55:17.958Z,21.50
2018-08-06T20:57:47.444Z,21.50
2018-08-06T21:00:20.787Z,21.40
2018-08-06T21:05:19.243Z,21.40
2018-08-06T21:07:48.328Z,21.30
2018-08-06T21:10:18.085Z,21.20
2018-08-06T21:12:47.551Z,21.10
2018-08-06T21:15:16.668Z,20.90
2018-08-06T21:17:45.936Z,20.90
2018-08-06T21:20:17.301Z,20.80
2018-08-06T21:22:47.504Z,20.80
2018-08-06T21:25:16.827Z,20.70
2018-08-06T21:27:47.127Z,20.70
2018-08-06T21:30:18.817Z,20.60
2018-08-06T21:32:50.035Z,20.60
2018-08-06T21:35:20.072Z,20.50
2018-08-06T21:37:50.280Z,20.50
2018-08-06T21:40:20.126Z,20.40
2018-08-06T21:42:49.907Z,20.30
2018-08-06T21:45:19.328Z,20.30
2018-08-06T21:47:48.712Z,20.20
2018-08-06T21:50:17.814Z,20.10
2018-08-06T21:52:47.007Z,20.00
2018-08-06T21:55:16.077Z,20.00
2018-08-06T22:00:19.931Z,19.90
2018-08-06T22:02:48.971Z,19.90
2018-08-06T22:05:18.077Z,19.80
2018-08-06T22:07:47.403Z,19.80
2018-08-06T22:10:16.496Z,19.70
2018-08-06T22:15:14.259Z,19.70
2018-08-06T22:17:43.328Z,19.70
2018-08-06T22:20:12.392Z,19.70
2018-08-06T22:22:41.472Z,19.60
2018-08-06T22:25:10.532Z,19.50
2018-08-06T22:27:39.579Z,19.50
2018-08-06T22:30:09.283Z,19.40
2018-08-06T22:32:38.523Z,19.50
2018-08-06T22:35:09.260Z,19.40
2018-08-06T22:37:38.309Z,19.40
2018-08-06T22:40:08.922Z,19.30
2018-08-06T22:42:38.058Z,19.30
2018-08-06T22:45:08.131Z,19.20
2018-08-06T22:47:37.183Z,19.20
2018-08-06T22:50:07.921Z,19.10
2018-08-06T22:52:37.412Z,19.10
2018-08-06T22:55:07.175Z,19.10
2018-08-06T22:57:36.258Z,19.10
2018-08-06T23:00:07.466Z,19.10
2018-08-06T23:02:36.566Z,19.00
2018-08-06T23:05:06.359Z,19.00
2018-08-06T23:07:35.891Z,18.90
2018-08-06T23:10:07.627Z,18.80
2018-08-06T23:12:36.703Z,18.80
2018-08-06T23:17:35.350Z,18.70
2018-08-06T23:20:05.352Z,18.70
2018-08-06T23:22:34.443Z,18.60
2018-08-06T23:25:03.855Z,18.60
2018-08-06T23:27:32.935Z,18.60
2018-08-06T23:30:01.997Z,18.50
2018-08-06T23:32:31.083Z,18.50
2018-08-06T23:35:00.144Z,18.50
2018-08-06T23:37:29.224Z,18.40
2018-08-06T23:39:58.287Z,18.40
2018-08-06T23:42:27.361Z,18.30
2018-08-06T23:44:56.424Z,18.20
2018-08-06T23:47:25.498Z,18.20
2018-08-06T23:49:54.558Z,18.10
2018-08-06T23:52:23.647Z,18.10
2018-08-06T23:54:52.693Z,17.90
2018-08-06T23:57:21.752Z,17.90
2018-08-06T23:59:50.799Z,17.80
